sensor_id;sensor_type;location;lat;lon;timestamp;P1;durP1;ratioP1;P2;durP2;ratioP2
11490;SDS011;5802;52.832;4.758;2023-02-12T00:01:12;2.33;;;1.90;;
11490;SDS011;5802;52.832;4.758;2023-02-12T00:03:40;2.55;;;1.60;;
11490;SDS011;5802;52.832;4.758;2023-02-12T00:06:07;3.45;;;1.88;;
11490;SDS011;5802;52.832;4.758;2023-02-12T00:08:35;3.50;;;1.88;;
11490;SDS011;5802;52.832;4.758;2023-02-12T00:11:09;3.03;;;1.70;;
11490;SDS011;5802;52.832;4.758;2023-02-12T00:13:37;3.78;;;1.65;;
11490;SDS011;5802;52.832;4.758;2023-02-12T00:16:06;2.58;;;1.63;;
11490;SDS011;5802;52.832;4.758;2023-02-12T00:18:34;4.20;;;2.10;;
11490;SDS011;5802;52.832;4.758;2023-02-12T00:21:01;3.05;;;1.77;;
11490;SDS011;5802;52.832;4.758;2023-02-12T00:23:29;3.00;;;1.73;;
11490;SDS011;5802;52.832;4.758;2023-02-12T00:25:56;2.60;;;1.80;;
11490;SDS011;5802;52.832;4.758;2023-02-12T00:28:22;2.85;;;1.63;;
11490;SDS011;5802;52.832;4.758;2023-02-12T00:30:49;3.05;;;1.80;;
11490;SDS011;5802;52.832;4.758;2023-02-12T00:33:17;1.73;;;1.38;;
11490;SDS011;5802;52.832;4.758;2023-02-12T00:35:53;3.45;;;1.67;;
11490;SDS011;5802;52.832;4.758;2023-02-12T00:38:20;2.15;;;1.45;;
11490;SDS011;5802;52.832;4.758;2023-02-12T00:40:47;2.13;;;1.50;;
11490;SDS011;5802;52.832;4.758;2023-02-12T00:43:14;2.10;;;1.33;;
11490;SDS011;5802;52.832;4.758;2023-02-12T00:45:41;1.83;;;1.55;;
11490;SDS011;5802;52.832;4.758;2023-02-12T00:48:09;2.63;;;1.80;;
11490;SDS011;5802;52.832;4.758;2023-02-12T00:50:37;1.88;;;1.48;;
11490;SDS011;5802;52.832;4.758;2023-02-12T00:53:05;2.42;;;1.60;;
11490;SDS011;5802;52.832;4.758;2023-02-12T00:55:32;3.47;;;1.45;;
11490;SDS011;5802;52.832;4.758;2023-02-12T00:57:59;2.90;;;1.45;;
11490;SDS011;5802;52.832;4.758;2023-02-12T01:00:26;3.60;;;1.60;;
11490;SDS011;5802;52.832;4.758;2023-02-12T01:02:52;2.20;;;1.60;;
11490;SDS011;5802;52.832;4.758;2023-02-12T01:05:19;2.60;;;1.50;;
11490;SDS011;5802;52.832;4.758;2023-02-12T01:07:49;4.80;;;2.05;;
11490;SDS011;5802;52.832;4.758;2023-02-12T01:10:15;3.50;;;1.95;;
11490;SDS011;5802;52.832;4.758;2023-02-12T01:12:44;3.03;;;1.70;;
11490;SDS011;5802;52.832;4.758;2023-02-12T01:15:11;2.55;;;1.45;;
11490;SDS011;5802;52.832;4.758;2023-02-12T01:17:38;3.10;;;1.70;;
11490;SDS011;5802;52.832;4.758;2023-02-12T01:20:06;3.53;;;1.95;;
11490;SDS011;5802;52.832;4.758;2023-02-12T01:22:35;5.40;;;1.67;;
11490;SDS011;5802;52.832;4.758;2023-02-12T01:25:04;1.80;;;1.40;;
11490;SDS011;5802;52.832;4.758;2023-02-12T01:27:31;2.33;;;1.80;;
11490;SDS011;5802;52.832;4.758;2023-02-12T01:29:58;2.65;;;1.65;;
11490;SDS011;5802;52.832;4.758;2023-02-12T01:32:25;3.53;;;1.60;;
11490;SDS011;5802;52.832;4.758;2023-02-12T01:34:52;2.63;;;1.50;;
11490;SDS011;5802;52.832;4.758;2023-02-12T01:37:18;2.88;;;1.80;;
11490;SDS011;5802;52.832;4.758;2023-02-12T01:39:45;1.98;;;1.48;;
11490;SDS011;5802;52.832;4.758;2023-02-12T01:42:14;2.65;;;1.75;;
11490;SDS011;5802;52.832;4.758;2023-02-12T01:48:05;1.92;;;1.40;;
11490;SDS011;5802;52.832;4.758;2023-02-12T01:50:32;3.45;;;1.55;;
11490;SDS011;5802;52.832;4.758;2023-02-12T01:52:59;3.67;;;1.60;;
11490;SDS011;5802;52.832;4.758;2023-02-12T01:55:26;1.75;;;1.38;;
11490;SDS011;5802;52.832;4.758;2023-02-12T01:57:55;2.38;;;1.70;;
11490;SDS011;5802;52.832;4.758;2023-02-12T02:00:23;2.90;;;1.30;;
11490;SDS011;5802;52.832;4.758;2023-02-12T02:02:51;2.05;;;1.50;;
11490;SDS011;5802;52.832;4.758;2023-02-12T02:05:22;2.17;;;1.40;;
11490;SDS011;5802;52.832;4.758;2023-02-12T02:07:53;2.17;;;1.35;;
11490;SDS011;5802;52.832;4.758;2023-02-12T02:10:19;2.50;;;1.50;;
11490;SDS011;5802;52.832;4.758;2023-02-12T02:12:46;2.00;;;1.40;;
11490;SDS011;5802;52.832;4.758;2023-02-12T02:15:32;2.80;;;1.13;;
11490;SDS011;5802;52.832;4.758;2023-02-12T02:18:00;3.03;;;1.60;;
11490;SDS011;5802;52.832;4.758;2023-02-12T02:20:55;2.85;;;1.38;;
11490;SDS011;5802;52.832;4.758;2023-02-12T02:23:51;1.95;;;1.42;;
11490;SDS011;5802;52.832;4.758;2023-02-12T02:26:40;2.78;;;1.27;;
11490;SDS011;5802;52.832;4.758;2023-02-12T02:29:37;2.17;;;1.38;;
11490;SDS011;5802;52.832;4.758;2023-02-12T02:32:17;2.72;;;1.33;;
11490;SDS011;5802;52.832;4.758;2023-02-12T02:34:49;1.73;;;1.27;;
11490;SDS011;5802;52.832;4.758;2023-02-12T02:37:25;1.55;;;1.33;;
11490;SDS011;5802;52.832;4.758;2023-02-12T02:39:54;1.70;;;1.30;;
11490;SDS011;5802;52.832;4.758;2023-02-12T02:42:26;1.73;;;1.33;;
11490;SDS011;5802;52.832;4.758;2023-02-12T02:44:58;1.50;;;1.35;;
11490;SDS011;5802;52.832;4.758;2023-02-12T02:47:34;1.63;;;1.30;;
11490;SDS011;5802;52.832;4.758;2023-02-12T02:50:06;3.22;;;1.30;;
11490;SDS011;5802;52.832;4.758;2023-02-12T02:52:39;1.83;;;1.30;;
11490;SDS011;5802;52.832;4.758;2023-02-12T02:55:10;2.35;;;1.20;;
11490;SDS011;5802;52.832;4.758;2023-02-12T02:57:41;1.95;;;1.30;;
11490;SDS011;5802;52.832;4.758;2023-02-12T03:00:13;2.33;;;1.58;;
11490;SDS011;5802;52.832;4.758;2023-02-12T03:02:46;3.15;;;1.63;;
11490;SDS011;5802;52.832;4.758;2023-02-12T03:05:16;1.50;;;1.25;;
11490;SDS011;5802;52.832;4.758;2023-02-12T03:07:48;1.98;;;1.42;;
11490;SDS011;5802;52.832;4.758;2023-02-12T03:10:19;3.28;;;1.30;;
11490;SDS011;5802;52.832;4.758;2023-02-12T03:12:50;2.35;;;1.40;;
11490;SDS011;5802;52.832;4.758;2023-02-12T03:15:22;2.20;;;1.20;;
11490;SDS011;5802;52.832;4.758;2023-02-12T03:17:54;2.33;;;1.42;;
11490;SDS011;5802;52.832;4.758;2023-02-12T03:20:24;2.05;;;1.40;;
11490;SDS011;5802;52.832;4.758;2023-02-12T03:22:55;2.00;;;1.58;;
11490;SDS011;5802;52.832;4.758;2023-02-12T03:25:27;1.88;;;1.40;;
11490;SDS011;5802;52.832;4.758;2023-02-12T03:28:01;2.03;;;1.33;;
11490;SDS011;5802;52.832;4.758;2023-02-12T03:30:34;2.47;;;1.30;;
11490;SDS011;5802;52.832;4.758;2023-02-12T03:33:11;1.75;;;1.50;;
11490;SDS011;5802;52.832;4.758;2023-02-12T03:35:44;3.22;;;1.48;;
11490;SDS011;5802;52.832;4.758;2023-02-12T03:38:21;1.92;;;1.50;;
11490;SDS011;5802;52.832;4.758;2023-02-12T03:40:57;1.80;;;1.45;;
11490;SDS011;5802;52.832;4.758;2023-02-12T03:43:28;2.47;;;1.38;;
11490;SDS011;5802;52.832;4.758;2023-02-12T03:45:59;2.00;;;1.10;;
11490;SDS011;5802;52.832;4.758;2023-02-12T03:48:32;2.03;;;1.23;;
11490;SDS011;5802;52.832;4.758;2023-02-12T03:51:02;3.60;;;1.60;;
11490;SDS011;5802;52.832;4.758;2023-02-12T03:53:37;2.10;;;1.10;;
11490;SDS011;5802;52.832;4.758;2023-02-12T03:56:04;1.85;;;1.20;;
11490;SDS011;5802;52.832;4.758;2023-02-12T03:58:35;1.67;;;1.15;;
11490;SDS011;5802;52.832;4.758;2023-02-12T04:01:03;1.25;;;1.08;;
11490;SDS011;5802;52.832;4.758;2023-02-12T04:03:32;2.53;;;1.30;;
11490;SDS011;5802;52.832;4.758;2023-02-12T04:05:59;1.50;;;1.13;;
11490;SDS011;5802;52.832;4.758;2023-02-12T04:08:26;3.85;;;0.90;;
11490;SDS011;5802;52.832;4.758;2023-02-12T04:10:55;1.73;;;1.40;;
11490;SDS011;5802;52.832;4.758;2023-02-12T04:13:32;2.38;;;1.30;;
11490;SDS011;5802;52.832;4.758;2023-02-12T04:16:11;1.90;;;1.30;;
11490;SDS011;5802;52.832;4.758;2023-02-12T04:18:46;1.75;;;1.23;;
11490;SDS011;5802;52.832;4.758;2023-02-12T04:21:17;1.70;;;1.10;;
11490;SDS011;5802;52.832;4.758;2023-02-12T04:23:56;1.80;;;1.30;;
11490;SDS011;5802;52.832;4.758;2023-02-12T04:26:31;1.63;;;1.20;;
11490;SDS011;5802;52.832;4.758;2023-02-12T04:29:06;1.17;;;1.08;;
11490;SDS011;5802;52.832;4.758;2023-02-12T04:31:42;1.83;;;1.17;;
11490;SDS011;5802;52.832;4.758;2023-02-12T04:34:16;2.92;;;1.30;;
11490;SDS011;5802;52.832;4.758;2023-02-12T04:36:50;2.78;;;1.30;;
11490;SDS011;5802;52.832;4.758;2023-02-12T04:39:21;2.03;;;1.23;;
11490;SDS011;5802;52.832;4.758;2023-02-12T04:41:50;1.70;;;1.10;;
11490;SDS011;5802;52.832;4.758;2023-02-12T04:44:18;1.45;;;1.10;;
11490;SDS011;5802;52.832;4.758;2023-02-12T04:46:49;2.75;;;1.50;;
11490;SDS011;5802;52.832;4.758;2023-02-12T04:49:17;1.83;;;1.20;;
11490;SDS011;5802;52.832;4.758;2023-02-12T04:51:46;1.50;;;0.93;;
11490;SDS011;5802;52.832;4.758;2023-02-12T04:54:14;1.60;;;1.30;;
11490;SDS011;5802;52.832;4.758;2023-02-12T04:56:42;4.10;;;1.20;;
11490;SDS011;5802;52.832;4.758;2023-02-12T04:59:08;1.90;;;1.10;;
11490;SDS011;5802;52.832;4.758;2023-02-12T05:01:36;1.85;;;1.20;;
11490;SDS011;5802;52.832;4.758;2023-02-12T05:04:03;2.47;;;1.20;;
11490;SDS011;5802;52.832;4.758;2023-02-12T05:06:34;2.67;;;1.17;;
11490;SDS011;5802;52.832;4.758;2023-02-12T05:09:02;1.25;;;1.02;;
11490;SDS011;5802;52.832;4.758;2023-02-12T05:11:29;1.08;;;0.88;;
11490;SDS011;5802;52.832;4.758;2023-02-12T05:13:56;1.70;;;1.02;;
11490;SDS011;5802;52.832;4.758;2023-02-12T05:16:24;1.63;;;1.20;;
11490;SDS011;5802;52.832;4.758;2023-02-12T05:18:50;1.25;;;1.02;;
11490;SDS011;5802;52.832;4.758;2023-02-12T05:21:17;1.13;;;0.85;;
11490;SDS011;5802;52.832;4.758;2023-02-12T05:23:45;1.73;;;1.30;;
11490;SDS011;5802;52.832;4.758;2023-02-12T05:26:12;3.28;;;1.20;;
11490;SDS011;5802;52.832;4.758;2023-02-12T05:28:40;2.35;;;1.33;;
11490;SDS011;5802;52.832;4.758;2023-02-12T05:31:07;1.70;;;1.00;;
11490;SDS011;5802;52.832;4.758;2023-02-12T05:33:35;1.67;;;1.20;;
11490;SDS011;5802;52.832;4.758;2023-02-12T05:36:02;2.85;;;1.50;;
11490;SDS011;5802;52.832;4.758;2023-02-12T05:38:30;2.22;;;1.30;;
11490;SDS011;5802;52.832;4.758;2023-02-12T05:41:01;3.05;;;1.30;;
11490;SDS011;5802;52.832;4.758;2023-02-12T05:43:28;2.28;;;1.30;;
11490;SDS011;5802;52.832;4.758;2023-02-12T05:45:57;2.35;;;1.30;;
11490;SDS011;5802;52.832;4.758;2023-02-12T05:48:24;3.28;;;1.02;;
11490;SDS011;5802;52.832;4.758;2023-02-12T05:50:50;2.00;;;1.40;;
11490;SDS011;5802;52.832;4.758;2023-02-12T05:53:17;2.40;;;0.93;;
11490;SDS011;5802;52.832;4.758;2023-02-12T05:55:44;2.10;;;1.20;;
11490;SDS011;5802;52.832;4.758;2023-02-12T05:58:12;2.85;;;1.52;;
11490;SDS011;5802;52.832;4.758;2023-02-12T06:00:39;1.40;;;1.17;;
11490;SDS011;5802;52.832;4.758;2023-02-12T06:03:06;1.60;;;1.10;;
11490;SDS011;5802;52.832;4.758;2023-02-12T06:05:32;2.60;;;1.00;;
11490;SDS011;5802;52.832;4.758;2023-02-12T06:07:59;2.10;;;1.25;;
11490;SDS011;5802;52.832;4.758;2023-02-12T06:10:26;2.28;;;1.55;;
11490;SDS011;5802;52.832;4.758;2023-02-12T06:12:53;1.60;;;1.13;;
11490;SDS011;5802;52.832;4.758;2023-02-12T06:15:21;1.75;;;1.38;;
11490;SDS011;5802;52.832;4.758;2023-02-12T06:17:47;1.52;;;1.10;;
11490;SDS011;5802;52.832;4.758;2023-02-12T06:20:14;1.75;;;1.10;;
11490;SDS011;5802;52.832;4.758;2023-02-12T06:22:41;3.35;;;1.55;;
11490;SDS011;5802;52.832;4.758;2023-02-12T06:25:08;1.75;;;1.25;;
11490;SDS011;5802;52.832;4.758;2023-02-12T06:27:34;1.38;;;1.05;;
11490;SDS011;5802;52.832;4.758;2023-02-12T06:30:01;2.13;;;1.25;;
11490;SDS011;5802;52.832;4.758;2023-02-12T06:32:29;3.22;;;1.27;;
11490;SDS011;5802;52.832;4.758;2023-02-12T06:34:56;2.80;;;1.38;;
11490;SDS011;5802;52.832;4.758;2023-02-12T06:37:23;1.95;;;1.00;;
11490;SDS011;5802;52.832;4.758;2023-02-12T06:39:49;1.63;;;1.20;;
11490;SDS011;5802;52.832;4.758;2023-02-12T06:42:16;2.85;;;0.95;;
11490;SDS011;5802;52.832;4.758;2023-02-12T06:44:42;1.75;;;1.13;;
11490;SDS011;5802;52.832;4.758;2023-02-12T06:47:10;1.23;;;1.13;;
11490;SDS011;5802;52.832;4.758;2023-02-12T06:49:38;1.92;;;1.30;;
11490;SDS011;5802;52.832;4.758;2023-02-12T06:52:05;2.13;;;1.20;;
11490;SDS011;5802;52.832;4.758;2023-02-12T06:54:31;1.10;;;1.00;;
11490;SDS011;5802;52.832;4.758;2023-02-12T06:56:58;1.70;;;1.35;;
11490;SDS011;5802;52.832;4.758;2023-02-12T06:59:25;2.33;;;1.38;;
11490;SDS011;5802;52.832;4.758;2023-02-12T07:01:54;1.67;;;1.10;;
11490;SDS011;5802;52.832;4.758;2023-02-12T07:04:20;1.88;;;1.27;;
11490;SDS011;5802;52.832;4.758;2023-02-12T07:06:48;1.95;;;1.33;;
11490;SDS011;5802;52.832;4.758;2023-02-12T07:09:16;1.48;;;1.17;;
11490;SDS011;5802;52.832;4.758;2023-02-12T07:11:42;1.38;;;1.10;;
11490;SDS011;5802;52.832;4.758;2023-02-12T07:14:11;2.13;;;1.20;;
11490;SDS011;5802;52.832;4.758;2023-02-12T07:16:39;2.92;;;1.27;;
11490;SDS011;5802;52.832;4.758;2023-02-12T07:19:06;3.53;;;1.30;;
11490;SDS011;5802;52.832;4.758;2023-02-12T07:21:33;2.17;;;1.05;;
11490;SDS011;5802;52.832;4.758;2023-02-12T07:24:01;1.83;;;1.08;;
11490;SDS011;5802;52.832;4.758;2023-02-12T07:26:27;1.70;;;1.20;;
11490;SDS011;5802;52.832;4.758;2023-02-12T07:28:55;1.58;;;1.20;;
11490;SDS011;5802;52.832;4.758;2023-02-12T07:31:22;2.17;;;1.38;;
11490;SDS011;5802;52.832;4.758;2023-02-12T07:33:51;1.90;;;1.30;;
11490;SDS011;5802;52.832;4.758;2023-02-12T07:36:19;2.15;;;1.23;;
11490;SDS011;5802;52.832;4.758;2023-02-12T07:38:46;1.85;;;1.15;;
11490;SDS011;5802;52.832;4.758;2023-02-12T07:41:15;2.60;;;1.20;;
11490;SDS011;5802;52.832;4.758;2023-02-12T07:43:43;2.10;;;1.10;;
11490;SDS011;5802;52.832;4.758;2023-02-12T07:46:12;5.07;;;1.40;;
11490;SDS011;5802;52.832;4.758;2023-02-12T07:48:41;1.75;;;1.13;;
11490;SDS011;5802;52.832;4.758;2023-02-12T07:51:09;1.67;;;1.20;;
11490;SDS011;5802;52.832;4.758;2023-02-12T07:53:39;2.95;;;1.38;;
11490;SDS011;5802;52.832;4.758;2023-02-12T07:56:07;2.50;;;1.33;;
11490;SDS011;5802;52.832;4.758;2023-02-12T07:58:36;2.08;;;1.17;;
11490;SDS011;5802;52.832;4.758;2023-02-12T08:01:10;2.35;;;1.23;;
11490;SDS011;5802;52.832;4.758;2023-02-12T08:03:38;1.75;;;1.33;;
11490;SDS011;5802;52.832;4.758;2023-02-12T08:06:06;1.50;;;0.98;;
11490;SDS011;5802;52.832;4.758;2023-02-12T08:08:33;2.40;;;1.33;;
11490;SDS011;5802;52.832;4.758;2023-02-12T08:11:03;1.83;;;1.20;;
11490;SDS011;5802;52.832;4.758;2023-02-12T08:13:30;3.28;;;1.23;;
11490;SDS011;5802;52.832;4.758;2023-02-12T08:16:02;2.70;;;1.40;;
11490;SDS011;5802;52.832;4.758;2023-02-12T08:18:30;2.25;;;1.20;;
11490;SDS011;5802;52.832;4.758;2023-02-12T08:21:01;1.88;;;1.15;;
11490;SDS011;5802;52.832;4.758;2023-02-12T08:23:29;1.65;;;1.00;;
11490;SDS011;5802;52.832;4.758;2023-02-12T08:26:03;1.90;;;1.20;;
11490;SDS011;5802;52.832;4.758;2023-02-12T08:28:34;3.58;;;1.90;;
11490;SDS011;5802;52.832;4.758;2023-02-12T08:31:03;2.80;;;1.90;;
11490;SDS011;5802;52.832;4.758;2023-02-12T08:33:31;3.28;;;1.70;;
11490;SDS011;5802;52.832;4.758;2023-02-12T08:36:02;4.03;;;1.50;;
11490;SDS011;5802;52.832;4.758;2023-02-12T08:38:30;1.70;;;1.40;;
11490;SDS011;5802;52.832;4.758;2023-02-12T08:41:01;2.47;;;1.42;;
11490;SDS011;5802;52.832;4.758;2023-02-12T08:43:30;3.22;;;1.40;;
11490;SDS011;5802;52.832;4.758;2023-02-12T08:46:00;2.05;;;1.30;;
11490;SDS011;5802;52.832;4.758;2023-02-12T08:48:29;1.50;;;1.20;;
11490;SDS011;5802;52.832;4.758;2023-02-12T08:51:02;1.92;;;1.13;;
11490;SDS011;5802;52.832;4.758;2023-02-12T08:53:30;3.92;;;1.40;;
11490;SDS011;5802;52.832;4.758;2023-02-12T08:55:57;1.85;;;1.45;;
11490;SDS011;5802;52.832;4.758;2023-02-12T08:58:23;1.73;;;1.23;;
11490;SDS011;5802;52.832;4.758;2023-02-12T09:00:50;1.77;;;1.25;;
11490;SDS011;5802;52.832;4.758;2023-02-12T09:03:18;2.85;;;1.20;;
11490;SDS011;5802;52.832;4.758;2023-02-12T09:05:45;2.60;;;1.40;;
11490;SDS011;5802;52.832;4.758;2023-02-12T09:08:12;3.10;;;1.13;;
11490;SDS011;5802;52.832;4.758;2023-02-12T09:10:39;2.47;;;1.10;;
11490;SDS011;5802;52.832;4.758;2023-02-12T09:13:07;2.08;;;1.23;;
11490;SDS011;5802;52.832;4.758;2023-02-12T09:15:35;2.47;;;1.35;;
11490;SDS011;5802;52.832;4.758;2023-02-12T09:18:02;1.63;;;1.13;;
11490;SDS011;5802;52.832;4.758;2023-02-12T09:20:31;1.35;;;1.13;;
11490;SDS011;5802;52.832;4.758;2023-02-12T09:22:58;1.55;;;1.15;;
11490;SDS011;5802;52.832;4.758;2023-02-12T09:25:25;1.45;;;1.00;;
11490;SDS011;5802;52.832;4.758;2023-02-12T09:27:52;1.77;;;1.17;;
11490;SDS011;5802;52.832;4.758;2023-02-12T09:30:20;2.42;;;1.20;;
11490;SDS011;5802;52.832;4.758;2023-02-12T09:32:47;2.88;;;1.20;;
11490;SDS011;5802;52.832;4.758;2023-02-12T09:35:13;1.48;;;1.00;;
11490;SDS011;5802;52.832;4.758;2023-02-12T09:37:42;1.48;;;0.77;;
11490;SDS011;5802;52.832;4.758;2023-02-12T09:40:10;2.17;;;1.00;;
11490;SDS011;5802;52.832;4.758;2023-02-12T09:42:51;1.55;;;1.20;;
11490;SDS011;5802;52.832;4.758;2023-02-12T09:45:29;1.42;;;1.10;;
11490;SDS011;5802;52.832;4.758;2023-02-12T09:48:03;1.60;;;1.20;;
11490;SDS011;5802;52.832;4.758;2023-02-12T09:50:42;3.50;;;1.20;;
11490;SDS011;5802;52.832;4.758;2023-02-12T09:53:15;1.38;;;0.90;;
11490;SDS011;5802;52.832;4.758;2023-02-12T09:55:44;1.10;;;1.00;;
11490;SDS011;5802;52.832;4.758;2023-02-12T09:58:12;1.67;;;1.20;;
11490;SDS011;5802;52.832;4.758;2023-02-12T10:00:41;2.00;;;1.20;;
11490;SDS011;5802;52.832;4.758;2023-02-12T10:03:10;1.65;;;1.10;;
11490;SDS011;5802;52.832;4.758;2023-02-12T10:05:39;1.27;;;0.90;;
11490;SDS011;5802;52.832;4.758;2023-02-12T10:08:22;1.40;;;1.00;;
11490;SDS011;5802;52.832;4.758;2023-02-12T10:10:59;1.42;;;1.00;;
11490;SDS011;5802;52.832;4.758;2023-02-12T10:13:39;1.00;;;0.90;;
11490;SDS011;5802;52.832;4.758;2023-02-12T10:16:13;2.05;;;1.10;;
11490;SDS011;5802;52.832;4.758;2023-02-12T10:18:51;1.48;;;1.02;;
11490;SDS011;5802;52.832;4.758;2023-02-12T10:21:33;2.83;;;1.20;;
11490;SDS011;5802;52.832;4.758;2023-02-12T10:24:18;6.32;;;1.45;;
11490;SDS011;5802;52.832;4.758;2023-02-12T10:27:02;3.97;;;1.38;;
11490;SDS011;5802;52.832;4.758;2023-02-12T10:29:36;3.58;;;1.30;;
11490;SDS011;5802;52.832;4.758;2023-02-12T10:32:11;4.45;;;1.70;;
11490;SDS011;5802;52.832;4.758;2023-02-12T10:34:49;1.40;;;1.30;;
11490;SDS011;5802;52.832;4.758;2023-02-12T10:37:20;2.63;;;1.50;;
11490;SDS011;5802;52.832;4.758;2023-02-12T10:39:55;2.33;;;1.63;;
11490;SDS011;5802;52.832;4.758;2023-02-12T10:42:31;2.72;;;1.88;;
11490;SDS011;5802;52.832;4.758;2023-02-12T10:45:03;5.88;;;2.40;;
11490;SDS011;5802;52.832;4.758;2023-02-12T10:47:31;3.88;;;2.10;;
11490;SDS011;5802;52.832;4.758;2023-02-12T10:49:58;2.78;;;2.03;;
11490;SDS011;5802;52.832;4.758;2023-02-12T10:52:29;3.85;;;2.45;;
11490;SDS011;5802;52.832;4.758;2023-02-12T10:55:04;4.93;;;2.85;;
11490;SDS011;5802;52.832;4.758;2023-02-12T10:57:49;4.88;;;3.72;;
11490;SDS011;5802;52.832;4.758;2023-02-12T11:00:22;5.07;;;4.35;;
11490;SDS011;5802;52.832;4.758;2023-02-12T11:05:45;6.25;;;5.75;;
11490;SDS011;5802;52.832;4.758;2023-02-12T11:08:30;6.70;;;5.97;;
11490;SDS011;5802;52.832;4.758;2023-02-12T11:11:04;6.90;;;6.20;;
11490;SDS011;5802;52.832;4.758;2023-02-12T11:13:34;6.13;;;5.53;;
11490;SDS011;5802;52.832;4.758;2023-02-12T11:16:01;5.60;;;5.05;;
11490;SDS011;5802;52.832;4.758;2023-02-12T11:18:29;6.68;;;4.82;;
11490;SDS011;5802;52.832;4.758;2023-02-12T11:20:57;5.50;;;5.00;;
11490;SDS011;5802;52.832;4.758;2023-02-12T11:23:27;7.72;;;4.50;;
11490;SDS011;5802;52.832;4.758;2023-02-12T11:25:57;16.27;;;4.45;;
11490;SDS011;5802;52.832;4.758;2023-02-12T11:28:27;6.32;;;4.15;;
11490;SDS011;5802;52.832;4.758;2023-02-12T11:30:55;4.03;;;3.63;;
11490;SDS011;5802;52.832;4.758;2023-02-12T11:33:31;4.80;;;3.80;;
11490;SDS011;5802;52.832;4.758;2023-02-12T11:35:59;4.32;;;3.65;;
11490;SDS011;5802;52.832;4.758;2023-02-12T11:38:32;3.58;;;3.28;;
11490;SDS011;5802;52.832;4.758;2023-02-12T11:41:02;4.63;;;3.20;;
11490;SDS011;5802;52.832;4.758;2023-02-12T11:43:34;4.22;;;3.58;;
11490;SDS011;5802;52.832;4.758;2023-02-12T11:46:03;3.90;;;3.13;;
11490;SDS011;5802;52.832;4.758;2023-02-12T11:48:33;3.92;;;3.08;;
11490;SDS011;5802;52.832;4.758;2023-02-12T11:51:02;2.85;;;2.65;;
11490;SDS011;5802;52.832;4.758;2023-02-12T11:53:34;7.35;;;2.88;;
11490;SDS011;5802;52.832;4.758;2023-02-12T11:56:05;4.45;;;2.78;;
11490;SDS011;5802;52.832;4.758;2023-02-12T11:58:35;2.70;;;2.50;;
11490;SDS011;5802;52.832;4.758;2023-02-12T12:01:03;3.50;;;2.33;;
11490;SDS011;5802;52.832;4.758;2023-02-12T12:03:36;2.50;;;2.30;;
11490;SDS011;5802;52.832;4.758;2023-02-12T12:06:12;4.22;;;2.40;;
11490;SDS011;5802;52.832;4.758;2023-02-12T12:08:49;2.50;;;2.30;;
11490;SDS011;5802;52.832;4.758;2023-02-12T12:11:24;2.53;;;2.33;;
11490;SDS011;5802;52.832;4.758;2023-02-12T12:13:58;2.38;;;2.17;;
11490;SDS011;5802;52.832;4.758;2023-02-12T12:16:30;3.42;;;2.20;;
11490;SDS011;5802;52.832;4.758;2023-02-12T12:19:19;3.00;;;2.25;;
11490;SDS011;5802;52.832;4.758;2023-02-12T12:22:10;2.83;;;2.40;;
11490;SDS011;5802;52.832;4.758;2023-02-12T12:24:42;4.80;;;2.17;;
11490;SDS011;5802;52.832;4.758;2023-02-12T12:27:17;2.83;;;2.20;;
11490;SDS011;5802;52.832;4.758;2023-02-12T12:30:07;2.97;;;2.10;;
11490;SDS011;5802;52.832;4.758;2023-02-12T12:32:40;2.38;;;1.98;;
11490;SDS011;5802;52.832;4.758;2023-02-12T12:35:14;2.88;;;2.00;;
11490;SDS011;5802;52.832;4.758;2023-02-12T12:37:47;3.65;;;2.03;;
11490;SDS011;5802;52.832;4.758;2023-02-12T12:40:33;2.38;;;2.13;;
11490;SDS011;5802;52.832;4.758;2023-02-12T12:43:08;2.13;;;1.92;;
11490;SDS011;5802;52.832;4.758;2023-02-12T12:48:47;3.35;;;1.98;;
11490;SDS011;5802;52.832;4.758;2023-02-12T12:51:41;3.45;;;2.00;;
11490;SDS011;5802;52.832;4.758;2023-02-12T12:54:26;2.38;;;1.80;;
11490;SDS011;5802;52.832;4.758;2023-02-12T12:57:04;2.05;;;1.70;;
11490;SDS011;5802;52.832;4.758;2023-02-12T12:59:56;2.38;;;1.80;;
11490;SDS011;5802;52.832;4.758;2023-02-12T13:02:41;2.15;;;1.70;;
11490;SDS011;5802;52.832;4.758;2023-02-12T13:05:29;2.58;;;1.55;;
11490;SDS011;5802;52.832;4.758;2023-02-12T13:08:11;1.90;;;1.63;;
11490;SDS011;5802;52.832;4.758;2023-02-12T13:10:52;1.65;;;1.48;;
11490;SDS011;5802;52.832;4.758;2023-02-12T13:13:24;2.45;;;1.70;;
11490;SDS011;5802;52.832;4.758;2023-02-12T13:15:58;1.70;;;1.60;;
11490;SDS011;5802;52.832;4.758;2023-02-12T13:18:38;3.50;;;2.10;;
11490;SDS011;5802;52.832;4.758;2023-02-12T13:21:13;3.10;;;1.60;;
11490;SDS011;5802;52.832;4.758;2023-02-12T13:23:49;3.58;;;1.70;;
11490;SDS011;5802;52.832;4.758;2023-02-12T13:26:22;2.90;;;2.00;;
11490;SDS011;5802;52.832;4.758;2023-02-12T13:28:55;2.05;;;1.55;;
11490;SDS011;5802;52.832;4.758;2023-02-12T13:31:26;3.50;;;1.63;;
11490;SDS011;5802;52.832;4.758;2023-02-12T13:33:57;1.75;;;1.65;;
11490;SDS011;5802;52.832;4.758;2023-02-12T13:36:26;1.70;;;1.60;;
11490;SDS011;5802;52.832;4.758;2023-02-12T13:38:54;1.73;;;1.63;;
11490;SDS011;5802;52.832;4.758;2023-02-12T13:41:23;1.67;;;1.48;;
11490;SDS011;5802;52.832;4.758;2023-02-12T13:43:55;2.05;;;1.50;;
11490;SDS011;5802;52.832;4.758;2023-02-12T13:46:31;1.50;;;1.40;;
11490;SDS011;5802;52.832;4.758;2023-02-12T13:49:12;1.95;;;1.40;;
11490;SDS011;5802;52.832;4.758;2023-02-12T13:51:45;1.50;;;1.40;;
11490;SDS011;5802;52.832;4.758;2023-02-12T13:54:16;2.50;;;1.40;;
11490;SDS011;5802;52.832;4.758;2023-02-12T13:57:06;1.95;;;1.48;;
11490;SDS011;5802;52.832;4.758;2023-02-12T13:59:41;5.15;;;1.55;;
11490;SDS011;5802;52.832;4.758;2023-02-12T14:05:29;4.55;;;1.52;;
11490;SDS011;5802;52.832;4.758;2023-02-12T14:08:00;9.48;;;1.70;;
11490;SDS011;5802;52.832;4.758;2023-02-12T14:10:32;3.90;;;1.60;;
11490;SDS011;5802;52.832;4.758;2023-02-12T14:13:11;5.70;;;1.50;;
11490;SDS011;5802;52.832;4.758;2023-02-12T14:15:45;10.80;;;1.50;;
11490;SDS011;5802;52.832;4.758;2023-02-12T14:18:25;2.85;;;1.58;;
11490;SDS011;5802;52.832;4.758;2023-02-12T14:27:26;4.32;;;1.73;;
11490;SDS011;5802;52.832;4.758;2023-02-12T14:35:45;1.75;;;1.50;;
11490;SDS011;5802;52.832;4.758;2023-02-12T14:41:27;1.90;;;1.40;;
11490;SDS011;5802;52.832;4.758;2023-02-12T14:50:12;5.00;;;1.58;;
11490;SDS011;5802;52.832;4.758;2023-02-12T14:52:46;4.90;;;1.60;;
11490;SDS011;5802;52.832;4.758;2023-02-12T14:55:19;2.65;;;1.45;;
11490;SDS011;5802;52.832;4.758;2023-02-12T14:57:50;2.05;;;1.50;;
11490;SDS011;5802;52.832;4.758;2023-02-12T15:00:25;2.42;;;1.63;;
11490;SDS011;5802;52.832;4.758;2023-02-12T15:02:56;4.15;;;1.90;;
11490;SDS011;5802;52.832;4.758;2023-02-12T15:05:27;2.10;;;1.45;;
11490;SDS011;5802;52.832;4.758;2023-02-12T15:07:56;1.50;;;1.38;;
11490;SDS011;5802;52.832;4.758;2023-02-12T15:10:26;2.90;;;1.60;;
11490;SDS011;5802;52.832;4.758;2023-02-12T15:13:00;2.72;;;1.50;;
11490;SDS011;5802;52.832;4.758;2023-02-12T15:15:36;3.35;;;1.60;;
11490;SDS011;5802;52.832;4.758;2023-02-12T15:18:10;2.75;;;1.50;;
11490;SDS011;5802;52.832;4.758;2023-02-12T15:20:43;4.20;;;1.80;;
11490;SDS011;5802;52.832;4.758;2023-02-12T15:23:25;4.78;;;1.55;;
11490;SDS011;5802;52.832;4.758;2023-02-12T15:25:57;3.50;;;1.52;;
11490;SDS011;5802;52.832;4.758;2023-02-12T15:28:26;3.40;;;1.52;;
11490;SDS011;5802;52.832;4.758;2023-02-12T15:30:59;4.05;;;1.63;;
11490;SDS011;5802;52.832;4.758;2023-02-12T15:33:27;2.90;;;1.50;;
11490;SDS011;5802;52.832;4.758;2023-02-12T15:35:56;3.15;;;1.77;;
11490;SDS011;5802;52.832;4.758;2023-02-12T15:38:25;4.20;;;1.30;;
11490;SDS011;5802;52.832;4.758;2023-02-12T15:40:57;3.50;;;1.58;;
11490;SDS011;5802;52.832;4.758;2023-02-12T15:43:25;1.92;;;1.20;;
11490;SDS011;5802;52.832;4.758;2023-02-12T15:45:54;1.73;;;1.55;;
11490;SDS011;5802;52.832;4.758;2023-02-12T15:48:30;2.42;;;1.30;;
11490;SDS011;5802;52.832;4.758;2023-02-12T15:51:01;4.60;;;1.90;;
11490;SDS011;5802;52.832;4.758;2023-02-12T15:53:32;1.92;;;1.75;;
11490;SDS011;5802;52.832;4.758;2023-02-12T15:55:59;2.17;;;1.58;;
11490;SDS011;5802;52.832;4.758;2023-02-12T15:58:28;4.55;;;1.85;;